Time;durP1;ratioP1;P1;durP2;ratioP2;P2;SDS_P1;SDS_P2;PMS_P1;PMS_P2;Temp;Humidity;BMP_temperature;BMP_pressure;BME280_temperature;BME280_humidity;BME280_pressure;Samples;Min_cycle;Max_cycle;Signal;HPM_P1;HPM_P2
2022/10/17 00:01:37;;;;;;;4.00;2.50;;;;;;;;;;5007178;28;20112;-48
2022/10/17 00:04:02;;;;;;;3.67;2.55;;;;;;;;;;5006740;28;20463;-43
2022/10/17 00:06:27;;;;;;;3.10;2.80;;;;;;;;;;5007544;28;20038;-47
2022/10/17 00:08:53;;;;;;;4.18;2.70;;;;;;;;;;5006126;28;20072;-46
2022/10/17 00:11:21;;;;;;;4.43;3.00;;;;;;;;;;5006452;28;20042;-47
2022/10/17 00:13:47;;;;;;;8.15;2.95;;;;;;;;;;5006990;28;20072;-46
2022/10/17 00:16:13;;;;;;;7.22;3.28;;;;;;;;;;5007161;28;20049;-44
2022/10/17 00:18:38;;;;;;;4.05;2.97;;;;;;;;;;5007206;28;20025;-43
2022/10/17 00:21:04;;;;;;;4.85;3.22;;;;;;;;;;5006188;28;20030;-43
2022/10/17 00:23:29;;;;;;;5.60;3.05;;;;;;;;;;5005823;28;20032;-46
2022/10/17 00:26:04;;;;;;;5.55;3.40;;;;;;;;;;5005073;28;20046;-45
2022/10/17 00:28:30;;;;;;;4.57;3.10;;;;;;;;;;5007009;28;20474;-43
2022/10/17 00:31:06;;;;;;;5.10;3.30;;;;;;;;;;5007141;28;20054;-42
2022/10/17 00:33:33;;;;;;;3.53;3.10;;;;;;;;;;5006473;28;20824;-44
2022/10/17 00:36:08;;;;;;;4.82;3.10;;;;;;;;;;5004841;28;20375;-45
2022/10/17 00:38:34;;;;;;;6.35;3.40;;;;;;;;;;5008102;28;20490;-43
2022/10/17 00:41:00;;;;;;;9.80;3.20;;;;;;;;;;5005298;28;20137;-45
2022/10/17 00:43:25;;;;;;;6.30;2.97;;;;;;;;;;5005962;28;20127;-45
2022/10/17 00:45:51;;;;;;;4.68;2.97;;;;;;;;;;5010992;28;20478;-43
2022/10/17 00:48:18;;;;;;;8.43;3.00;;;;;;;;;;5011813;28;20534;-44
2022/10/17 00:50:47;;;;;;;6.90;3.53;;;;;;;;;;5010087;28;20538;-44
2022/10/17 00:53:14;;;;;;;7.28;2.90;;;;;;;;;;5010722;28;20045;-50
2022/10/17 00:55:51;;;;;;;5.15;2.97;;;;;;;;;;5003374;28;20050;-45
2022/10/17 00:58:18;;;;;;;4.43;2.85;;;;;;;;;;5010956;28;20394;-47
2022/10/17 01:00:46;;;;;;;6.13;2.72;;;;;;;;;;5010648;28;20224;-47
2022/10/17 01:03:12;;;;;;;3.35;2.65;;;;;;;;;;5010225;28;20065;-46
2022/10/17 01:05:40;;;;;;;3.58;2.72;;;;;;;;;;5005909;28;20049;-43
2022/10/17 01:08:06;;;;;;;3.88;2.60;;;;;;;;;;5010272;28;20032;-43
2022/10/17 01:11:04;;;;;;;6.03;2.75;;;;;;;;;;5009202;28;20030;-43
2022/10/17 01:13:36;;;;;;;4.88;2.55;;;;;;;;;;4964831;28;20065;-44
2022/10/17 01:16:12;;;;;;;5.70;2.97;;;;;;;;;;4965892;28;20569;-46
2022/10/17 01:18:59;;;;;;;6.13;2.70;;;;;;;;;;4968295;28;20516;-46
2022/10/17 01:21:30;;;;;;;4.70;2.83;;;;;;;;;;4967733;28;20040;-44
2022/10/17 01:23:58;;;;;;;5.65;3.30;;;;;;;;;;4964015;28;20054;-43
2022/10/17 01:26:52;;;;;;;4.50;2.97;;;;;;;;;;4966690;28;20046;-45
2022/10/17 01:29:39;;;;;;;4.32;2.60;;;;;;;;;;4965561;28;20531;-43
2022/10/17 01:32:17;;;;;;;3.53;3.13;;;;;;;;;;4966650;28;20065;-43
2022/10/17 01:34:45;;;;;;;5.43;3.10;;;;;;;;;;4961593;28;20094;-45
2022/10/17 01:37:31;;;;;;;5.18;3.03;;;;;;;;;;4964842;28;20121;-43
2022/10/17 01:40:22;;;;;;;3.97;2.72;;;;;;;;;;4963841;28;20408;-44
2022/10/17 01:42:58;;;;;;;3.93;2.77;;;;;;;;;;4890435;29;20587;-48
2022/10/17 01:45:30;;;;;;;2.70;2.50;;;;;;;;;;4895393;29;20452;-44
2022/10/17 01:47:57;;;;;;;5.90;2.55;;;;;;;;;;4894191;29;20059;-43
2022/10/17 01:50:26;;;;;;;2.70;2.50;;;;;;;;;;4912671;29;20051;-44
2022/10/17 01:53:00;;;;;;;4.22;2.55;;;;;;;;;;4930628;29;20039;-45
2022/10/17 01:55:38;;;;;;;5.78;2.97;;;;;;;;;;4927770;28;20094;-44
2022/10/17 01:58:11;;;;;;;6.05;2.80;;;;;;;;;;4929044;29;20034;-48
2022/10/17 02:00:41;;;;;;;2.50;2.30;;;;;;;;;;4929647;28;20040;-42
2022/10/17 02:03:10;;;;;;;8.13;2.70;;;;;;;;;;4929499;29;20071;-46
2022/10/17 02:05:39;;;;;;;2.72;2.35;;;;;;;;;;4927913;29;20051;-43
2022/10/17 02:08:05;;;;;;;3.17;2.40;;;;;;;;;;4930282;29;20034;-45
2022/10/17 02:10:43;;;;;;;5.68;2.40;;;;;;;;;;4928658;28;20043;-43
2022/10/17 02:13:18;;;;;;;2.83;2.50;;;;;;;;;;4928261;29;20051;-45
2022/10/17 02:16:02;;;;;;;7.30;2.20;;;;;;;;;;4928716;28;20421;-42
2022/10/17 02:18:39;;;;;;;3.40;2.40;;;;;;;;;;4931467;28;20496;-43
2022/10/17 02:21:30;;;;;;;4.20;2.50;;;;;;;;;;5006817;28;20053;-46
2022/10/17 02:24:06;;;;;;;3.05;2.35;;;;;;;;;;5006931;28;20433;-43
2022/10/17 02:26:43;;;;;;;4.32;2.50;;;;;;;;;;5009436;28;20049;-47
2022/10/17 02:29:16;;;;;;;6.10;2.88;;;;;;;;;;5014245;28;20041;-43
2022/10/17 02:31:47;;;;;;;2.53;2.33;;;;;;;;;;5008058;28;20153;-45
2022/10/17 02:34:28;;;;;;;2.90;2.60;;;;;;;;;;5008617;28;20049;-44
2022/10/17 02:36:59;;;;;;;2.47;2.17;;;;;;;;;;5006485;28;20042;-43
2022/10/17 02:39:27;;;;;;;3.50;2.57;;;;;;;;;;5006163;28;20485;-44
2022/10/17 02:41:55;;;;;;;6.63;2.80;;;;;;;;;;5009106;28;20050;-46
2022/10/17 02:44:23;;;;;;;3.13;2.33;;;;;;;;;;5007524;28;20025;-44
2022/10/17 02:46:54;;;;;;;2.55;2.35;;;;;;;;;;5008616;28;20049;-46
2022/10/17 02:49:28;;;;;;;2.83;2.30;;;;;;;;;;5008501;28;20057;-43
2022/10/17 02:52:18;;;;;;;3.35;2.30;;;;;;;;;;5008807;28;20724;-43
2022/10/17 02:54:49;;;;;;;3.10;2.45;;;;;;;;;;5004954;28;20044;-44
2022/10/17 02:57:26;;;;;;;3.38;2.78;;;;;;;;;;5008486;28;20025;-43
2022/10/17 02:59:52;;;;;;;2.72;2.10;;;;;;;;;;5008239;28;20061;-45
2022/10/17 03:02:17;;;;;;;3.63;2.78;;;;;;;;;;5009547;28;20029;-43
2022/10/17 03:04:44;;;;;;;3.30;2.50;;;;;;;;;;5006921;28;20022;-43
2022/10/17 03:07:10;;;;;;;4.30;2.50;;;;;;;;;;5006610;28;20395;-49
2022/10/17 03:09:35;;;;;;;3.88;2.60;;;;;;;;;;5007189;28;20022;-43
2022/10/17 03:12:01;;;;;;;5.18;2.40;;;;;;;;;;5009348;28;20044;-43
2022/10/17 03:14:26;;;;;;;4.55;2.60;;;;;;;;;;5007445;28;20034;-43
2022/10/17 03:16:51;;;;;;;6.28;2.42;;;;;;;;;;5009064;28;20040;-47
2022/10/17 03:19:17;;;;;;;3.53;2.30;;;;;;;;;;5005730;28;20049;-42
2022/10/17 03:21:42;;;;;;;5.18;2.85;;;;;;;;;;5006998;28;20133;-45
2022/10/17 03:24:07;;;;;;;5.35;2.30;;;;;;;;;;5006951;28;20027;-43
2022/10/17 03:26:33;;;;;;;3.72;2.50;;;;;;;;;;5005052;28;20042;-45
2022/10/17 03:28:58;;;;;;;4.40;2.63;;;;;;;;;;5008373;28;20030;-45
2022/10/17 03:31:24;;;;;;;2.67;2.47;;;;;;;;;;5007825;28;20045;-47
2022/10/17 03:33:49;;;;;;;3.30;2.50;;;;;;;;;;5006929;28;20052;-43
2022/10/17 03:36:17;;;;;;;3.88;2.60;;;;;;;;;;5007205;28;20057;-43
2022/10/17 03:38:43;;;;;;;3.92;2.45;;;;;;;;;;5007976;28;20033;-46
2022/10/17 03:41:09;;;;;;;4.88;2.45;;;;;;;;;;5006034;28;20064;-43
2022/10/17 03:43:35;;;;;;;6.07;2.60;;;;;;;;;;5004908;28;20475;-44
2022/10/17 03:46:02;;;;;;;3.70;2.55;;;;;;;;;;5006338;28;20430;-44
2022/10/17 03:48:29;;;;;;;5.15;2.55;;;;;;;;;;5006621;28;20064;-48
2022/10/17 03:51:00;;;;;;;5.03;2.40;;;;;;;;;;5003997;28;20585;-43
2022/10/17 03:53:26;;;;;;;3.13;2.27;;;;;;;;;;5008129;28;20029;-45
2022/10/17 03:55:51;;;;;;;4.63;2.67;;;;;;;;;;5006556;28;20399;-42
2022/10/17 03:58:16;;;;;;;4.32;2.83;;;;;;;;;;5008459;28;20442;-46
2022/10/17 04:00:42;;;;;;;3.40;2.50;;;;;;;;;;5006409;28;20069;-45
2022/10/17 04:03:07;;;;;;;3.25;2.50;;;;;;;;;;5006190;28;20096;-45
2022/10/17 04:05:32;;;;;;;3.05;2.63;;;;;;;;;;5005749;28;20042;-43
2022/10/17 04:07:58;;;;;;;3.17;2.50;;;;;;;;;;5007235;28;20034;-46
2022/10/17 04:10:23;;;;;;;3.75;2.42;;;;;;;;;;5007078;28;20070;-43
2022/10/17 04:12:48;;;;;;;2.55;2.35;;;;;;;;;;5006974;28;20026;-45
2022/10/17 04:15:14;;;;;;;5.15;2.45;;;;;;;;;;5005481;28;20569;-46
2022/10/17 04:17:39;;;;;;;3.20;2.60;;;;;;;;;;5005489;28;20068;-43
2022/10/17 04:20:05;;;;;;;5.30;2.75;;;;;;;;;;5010569;28;20495;-43
2022/10/17 04:22:31;;;;;;;4.70;2.45;;;;;;;;;;5010165;28;20028;-47
2022/10/17 04:24:56;;;;;;;3.55;2.70;;;;;;;;;;5009799;28;20410;-44
2022/10/17 04:27:21;;;;;;;4.30;2.30;;;;;;;;;;5009415;28;20120;-45
2022/10/17 04:29:47;;;;;;;9.27;2.60;;;;;;;;;;5011831;28;20053;-44
2022/10/17 04:32:12;;;;;;;3.72;2.63;;;;;;;;;;5010495;28;20041;-45
2022/10/17 04:34:37;;;;;;;5.25;2.55;;;;;;;;;;5009424;28;20463;-43
2022/10/17 04:37:03;;;;;;;9.40;2.90;;;;;;;;;;5011052;28;20121;-43
2022/10/17 04:39:28;;;;;;;2.80;2.28;;;;;;;;;;5006103;28;20053;-43
2022/10/17 04:41:55;;;;;;;3.53;2.35;;;;;;;;;;5011378;28;20034;-44
2022/10/17 04:44:21;;;;;;;3.97;2.60;;;;;;;;;;5009754;28;20057;-43
2022/10/17 04:46:46;;;;;;;4.22;2.42;;;;;;;;;;5007973;28;20149;-46
2022/10/17 04:49:11;;;;;;;5.15;2.53;;;;;;;;;;5010822;28;20034;-45
2022/10/17 04:51:37;;;;;;;4.18;2.40;;;;;;;;;;5010978;28;20616;-43
2022/10/17 04:54:03;;;;;;;2.80;2.35;;;;;;;;;;5011020;28;20029;-43
2022/10/17 04:56:29;;;;;;;2.83;2.60;;;;;;;;;;5008120;28;20049;-46
2022/10/17 04:58:54;;;;;;;2.63;2.42;;;;;;;;;;5007005;28;20040;-44
2022/10/17 05:01:21;;;;;;;5.35;2.70;;;;;;;;;;5007638;28;20061;-47
2022/10/17 05:03:47;;;;;;;7.50;2.78;;;;;;;;;;5001746;28;20486;-43
2022/10/17 05:06:16;;;;;;;2.45;2.20;;;;;;;;;;5001149;28;20050;-43
2022/10/17 05:08:41;;;;;;;3.67;2.72;;;;;;;;;;5001070;28;20034;-44
2022/10/17 05:11:25;;;;;;;3.95;2.38;;;;;;;;;;5002238;28;20540;-45
2022/10/17 05:13:56;;;;;;;3.60;2.60;;;;;;;;;;5000678;28;20033;-47
2022/10/17 05:16:22;;;;;;;3.90;2.85;;;;;;;;;;5002804;28;20065;-43
2022/10/17 05:18:52;;;;;;;3.80;2.47;;;;;;;;;;4999616;28;20580;-44
2022/10/17 05:21:18;;;;;;;2.42;2.22;;;;;;;;;;5003234;28;20108;-44
2022/10/17 05:23:44;;;;;;;5.95;2.75;;;;;;;;;;5003669;28;20042;-46
2022/10/17 05:26:09;;;;;;;2.67;2.40;;;;;;;;;;5002802;28;20034;-43
2022/10/17 05:28:35;;;;;;;2.60;2.10;;;;;;;;;;4998290;28;20022;-46
2022/10/17 05:31:06;;;;;;;6.30;2.58;;;;;;;;;;5003048;28;20073;-45
2022/10/17 05:33:31;;;;;;;4.68;2.55;;;;;;;;;;5001932;28;20108;-45
2022/10/17 05:35:57;;;;;;;4.07;2.55;;;;;;;;;;5003590;28;20144;-47
2022/10/17 05:38:23;;;;;;;4.65;2.35;;;;;;;;;;5006524;28;20033;-43
2022/10/17 05:40:48;;;;;;;4.53;2.28;;;;;;;;;;5006898;28;20050;-43
2022/10/17 05:43:13;;;;;;;4.05;2.90;;;;;;;;;;4992938;28;20030;-43
2022/10/17 05:45:40;;;;;;;4.43;2.10;;;;;;;;;;5000968;28;20579;-48
2022/10/17 05:48:05;;;;;;;4.60;2.90;;;;;;;;;;5000623;28;20081;-44
2022/10/17 05:50:31;;;;;;;4.88;2.58;;;;;;;;;;5000397;28;20041;-43
2022/10/17 05:52:56;;;;;;;4.13;2.22;;;;;;;;;;5000814;28;21208;-44
2022/10/17 05:55:22;;;;;;;3.92;2.45;;;;;;;;;;4998504;28;20108;-45
2022/10/17 05:57:48;;;;;;;2.78;2.58;;;;;;;;;;4998982;28;20505;-43
2022/10/17 06:00:13;;;;;;;4.82;2.20;;;;;;;;;;5004995;28;20482;-43
2022/10/17 06:02:39;;;;;;;2.72;2.30;;;;;;;;;;5003492;28;20089;-50
2022/10/17 06:05:04;;;;;;;7.22;2.30;;;;;;;;;;5002840;28;20434;-44
2022/10/17 06:07:30;;;;;;;5.25;2.50;;;;;;;;;;5003002;28;20041;-43
2022/10/17 06:09:57;;;;;;;4.47;2.28;;;;;;;;;;5002514;28;20046;-43
2022/10/17 06:12:23;;;;;;;4.95;2.42;;;;;;;;;;5002389;28;20533;-44
2022/10/17 06:14:48;;;;;;;7.32;3.15;;;;;;;;;;4999614;28;20103;-48
2022/10/17 06:17:14;;;;;;;2.60;2.13;;;;;;;;;;5009510;28;20097;-42
2022/10/17 06:19:40;;;;;;;8.43;2.47;;;;;;;;;;5007821;28;20033;-45
2022/10/17 06:22:06;;;;;;;5.40;2.53;;;;;;;;;;5006210;28;20041;-45
2022/10/17 06:24:31;;;;;;;7.07;1.80;;;;;;;;;;5005214;28;20101;-44
2022/10/17 06:26:56;;;;;;;2.53;2.20;;;;;;;;;;5004601;28;20030;-43
2022/10/17 06:29:22;;;;;;;3.67;2.17;;;;;;;;;;5006348;28;20495;-45
2022/10/17 06:31:47;;;;;;;4.22;2.20;;;;;;;;;;5008592;28;20034;-44
2022/10/17 06:34:12;;;;;;;2.72;2.40;;;;;;;;;;4999594;28;20026;-45
2022/10/17 06:36:38;;;;;;;4.00;2.40;;;;;;;;;;5001493;28;20137;-46
2022/10/17 06:39:03;;;;;;;5.50;2.50;;;;;;;;;;4999667;28;20088;-43
2022/10/17 06:41:29;;;;;;;5.55;2.20;;;;;;;;;;5005725;28;20069;-42
2022/10/17 06:43:54;;;;;;;5.80;2.20;;;;;;;;;;5008885;28;20034;-44
2022/10/17 06:46:20;;;;;;;3.00;2.20;;;;;;;;;;5009938;28;20554;-43
2022/10/17 06:48:45;;;;;;;9.30;2.33;;;;;;;;;;5007367;28;20033;-44
2022/10/17 06:51:11;;;;;;;4.43;1.85;;;;;;;;;;5006001;28;20487;-46
2022/10/17 06:53:38;;;;;;;3.30;2.10;;;;;;;;;;5007135;28;20026;-45
2022/10/17 06:56:05;;;;;;;4.18;2.22;;;;;;;;;;5005299;28;20096;-43
2022/10/17 06:58:33;;;;;;;3.97;2.25;;;;;;;;;;5007890;28;20116;-45
2022/10/17 07:01:04;;;;;;;5.25;2.60;;;;;;;;;;5005571;28;20041;-47
2022/10/17 07:03:30;;;;;;;4.88;2.55;;;;;;;;;;5009219;28;20030;-47
2022/10/17 07:05:56;;;;;;;9.52;2.63;;;;;;;;;;5008636;28;20045;-43
2022/10/17 07:08:22;;;;;;;4.80;2.22;;;;;;;;;;5008849;28;20025;-45
2022/10/17 07:10:47;;;;;;;2.97;2.10;;;;;;;;;;5007517;28;20379;-43
2022/10/17 07:13:14;;;;;;;7.85;2.63;;;;;;;;;;5009516;28;20134;-46
2022/10/17 07:15:40;;;;;;;3.67;2.22;;;;;;;;;;5006073;28;20510;-44
2022/10/17 07:18:05;;;;;;;7.38;2.42;;;;;;;;;;5006852;28;20095;-45
2022/10/17 07:20:31;;;;;;;5.65;2.47;;;;;;;;;;5005675;28;20677;-45
2022/10/17 07:22:57;;;;;;;5.32;2.97;;;;;;;;;;5006087;28;20040;-44
2022/10/17 07:25:22;;;;;;;5.68;2.15;;;;;;;;;;5008359;28;20041;-47
2022/10/17 07:27:49;;;;;;;4.00;2.63;;;;;;;;;;5006479;28;20026;-44
2022/10/17 07:30:15;;;;;;;3.85;2.30;;;;;;;;;;5008404;28;20484;-45
2022/10/17 07:32:41;;;;;;;4.55;2.47;;;;;;;;;;5008182;28;20050;-45
2022/10/17 07:35:07;;;;;;;5.13;2.63;;;;;;;;;;5004555;28;20100;-43
2022/10/17 07:37:32;;;;;;;6.13;2.72;;;;;;;;;;5005121;28;23908;-46
2022/10/17 07:39:58;;;;;;;3.42;2.22;;;;;;;;;;5004552;28;20041;-45
2022/10/17 07:42:23;;;;;;;7.63;2.58;;;;;;;;;;5007901;28;20132;-45
2022/10/17 07:44:49;;;;;;;4.68;2.33;;;;;;;;;;5006340;28;20034;-47
2022/10/17 07:47:14;;;;;;;4.30;2.10;;;;;;;;;;5006836;28;20030;-44
2022/10/17 07:49:42;;;;;;;3.40;2.40;;;;;;;;;;5003320;28;20108;-44
2022/10/17 07:52:12;;;;;;;5.18;2.17;;;;;;;;;;5008546;28;20064;-44
2022/10/17 07:54:37;;;;;;;5.82;2.13;;;;;;;;;;5009446;28;20096;-46
2022/10/17 07:57:03;;;;;;;4.43;2.58;;;;;;;;;;5010959;28;20026;-47
2022/10/17 07:59:29;;;;;;;3.42;2.35;;;;;;;;;;5011644;28;20033;-47
2022/10/17 08:01:55;;;;;;;8.60;2.45;;;;;;;;;;5011539;28;20022;-43
2022/10/17 08:04:20;;;;;;;3.88;2.33;;;;;;;;;;5009063;28;20479;-44
2022/10/17 08:06:46;;;;;;;4.45;2.45;;;;;;;;;;5010290;28;20173;-48
2022/10/17 08:09:11;;;;;;;3.40;2.90;;;;;;;;;;5011860;28;20033;-45
2022/10/17 08:11:37;;;;;;;6.60;2.70;;;;;;;;;;5010027;28;20046;-43
2022/10/17 08:14:02;;;;;;;6.40;2.30;;;;;;;;;;5011299;28;20088;-48
2022/10/17 08:16:28;;;;;;;6.45;2.63;;;;;;;;;;5011196;28;20571;-43
2022/10/17 08:18:53;;;;;;;8.57;2.40;;;;;;;;;;5010834;28;20022;-44
2022/10/17 08:21:18;;;;;;;8.00;2.60;;;;;;;;;;5010365;28;20045;-43
2022/10/17 08:23:44;;;;;;;5.07;2.50;;;;;;;;;;5010084;28;20042;-46
2022/10/17 08:26:12;;;;;;;5.93;2.28;;;;;;;;;;5008970;28;20069;-45
2022/10/17 08:28:38;;;;;;;13.07;2.55;;;;;;;;;;5010084;28;20037;-46
2022/10/17 08:31:06;;;;;;;2.30;1.85;;;;;;;;;;5010011;28;20497;-44
2022/10/17 08:33:32;;;;;;;6.32;2.42;;;;;;;;;;5013725;28;20489;-45
2022/10/17 08:36:01;;;;;;;8.60;2.17;;;;;;;;;;5010992;28;20053;-46
2022/10/17 08:38:31;;;;;;;5.50;2.63;;;;;;;;;;5008349;28;20125;-46
2022/10/17 08:41:00;;;;;;;6.28;2.10;;;;;;;;;;5009379;28;20046;-49
2022/10/17 08:43:55;;;;;;;4.32;2.00;;;;;;;;;;5011509;28;20029;-43
2022/10/17 08:46:21;;;;;;;3.85;2.30;;;;;;;;;;5010361;28;20053;-47
2022/10/17 08:48:48;;;;;;;3.65;2.28;;;;;;;;;;5008954;28;20034;-48
2022/10/17 08:51:21;;;;;;;5.82;2.50;;;;;;;;;;5009590;28;20070;-45
2022/10/17 08:54:16;;;;;;;4.70;2.25;;;;;;;;;;5009396;28;20030;-48
2022/10/17 08:56:44;;;;;;;2.92;2.10;;;;;;;;;;5009910;28;20042;-44
2022/10/17 08:59:26;;;;;;;8.90;2.28;;;;;;;;;;5010885;28;20037;-46
2022/10/17 09:02:21;;;;;;;3.90;2.00;;;;;;;;;;5008776;28;20037;-45
2022/10/17 09:05:00;;;;;;;7.35;2.20;;;;;;;;;;5001670;28;20502;-44
2022/10/17 09:07:44;;;;;;;9.73;2.08;;;;;;;;;;5009362;28;20049;-47
2022/10/17 09:10:28;;;;;;;6.60;2.05;;;;;;;;;;5008003;28;20043;-47
2022/10/17 09:13:02;;;;;;;3.70;2.10;;;;;;;;;;5007106;28;20033;-46
2022/10/17 09:15:42;;;;;;;7.30;2.58;;;;;;;;;;5010566;28;20037;-44
2022/10/17 09:18:21;;;;;;;4.90;2.08;;;;;;;;;;5009330;28;20087;-47
2022/10/17 09:20:52;;;;;;;4.97;2.20;;;;;;;;;;5006522;28;20050;-47
2022/10/17 09:23:19;;;;;;;3.75;2.13;;;;;;;;;;5008384;28;20029;-43
2022/10/17 09:25:52;;;;;;;5.65;2.40;;;;;;;;;;5006796;28;20048;-45
2022/10/17 09:28:24;;;;;;;5.10;2.38;;;;;;;;;;5006352;28;20501;-44
2022/10/17 09:31:20;;;;;;;3.92;2.35;;;;;;;;;;5009332;28;20057;-46
2022/10/17 09:33:49;;;;;;;7.53;2.45;;;;;;;;;;5007301;28;20513;-46
2022/10/17 09:36:28;;;;;;;6.85;2.83;;;;;;;;;;5006891;28;20051;-44
2022/10/17 09:39:04;;;;;;;6.13;2.38;;;;;;;;;;5008519;28;20038;-45
2022/10/17 09:41:30;;;;;;;8.38;2.60;;;;;;;;;;5006779;28;20045;-43
2022/10/17 09:43:57;;;;;;;11.75;2.45;;;;;;;;;;5008211;28;20029;-48
2022/10/17 09:46:35;;;;;;;6.95;2.33;;;;;;;;;;5008872;28;20046;-44
2022/10/17 09:49:22;;;;;;;5.15;2.45;;;;;;;;;;5007592;28;20036;-49
2022/10/17 09:51:47;;;;;;;3.83;1.92;;;;;;;;;;5008821;28;20049;-45
2022/10/17 09:54:27;;;;;;;13.32;2.03;;;;;;;;;;5010011;28;20041;-43
2022/10/17 09:57:12;;;;;;;5.93;2.63;;;;;;;;;;5008595;28;20046;-46
2022/10/17 09:59:46;;;;;;;7.32;1.95;;;;;;;;;;5008194;28;20389;-45
2022/10/17 10:02:12;;;;;;;5.30;2.13;;;;;;;;;;5008890;28;20040;-44
2022/10/17 10:04:58;;;;;;;7.55;2.40;;;;;;;;;;5007381;28;20017;-45
2022/10/17 10:07:27;;;;;;;5.20;2.50;;;;;;;;;;5009086;28;20478;-43
2022/10/17 10:09:53;;;;;;;7.07;2.17;;;;;;;;;;5009103;28;20550;-46
2022/10/17 10:12:24;;;;;;;4.65;2.67;;;;;;;;;;5009902;28;20030;-43
2022/10/17 10:14:50;;;;;;;4.22;2.33;;;;;;;;;;5007394;28;20054;-44
2022/10/17 10:17:34;;;;;;;5.50;2.10;;;;;;;;;;5006953;28;20038;-47
2022/10/17 10:20:01;;;;;;;3.78;2.30;;;;;;;;;;5009333;28;20046;-47
2022/10/17 10:22:27;;;;;;;5.40;2.10;;;;;;;;;;5006439;28;20384;-48
2022/10/17 10:25:14;;;;;;;12.18;2.70;;;;;;;;;;5007348;28;20517;-45
2022/10/17 10:27:42;;;;;;;6.70;2.38;;;;;;;;;;5008525;28;20095;-44
2022/10/17 10:30:18;;;;;;;3.88;2.45;;;;;;;;;;5009238;28;20613;-45
2022/10/17 10:32:46;;;;;;;3.70;1.70;;;;;;;;;;5007581;28;20062;-46
2022/10/17 10:35:26;;;;;;;4.97;2.10;;;;;;;;;;5018894;28;20439;-46
2022/10/17 10:37:54;;;;;;;3.22;2.05;;;;;;;;;;5008146;28;20044;-49
2022/10/17 10:40:28;;;;;;;7.63;2.10;;;;;;;;;;5008211;28;20093;-44
2022/10/17 10:42:58;;;;;;;4.82;1.80;;;;;;;;;;5006883;28;20061;-44
2022/10/17 10:45:27;;;;;;;6.00;2.05;;;;;;;;;;5008549;28;20080;-47
2022/10/17 10:47:57;;;;;;;8.05;2.08;;;;;;;;;;5004756;28;20037;-44
2022/10/17 10:50:28;;;;;;;3.75;1.92;;;;;;;;;;5006703;28;20435;-46
2022/10/17 10:53:24;;;;;;;2.75;1.67;;;;;;;;;;5005805;28;20056;-44
2022/10/17 10:55:52;;;;;;;4.35;1.63;;;;;;;;;;5007450;28;20513;-47
2022/10/17 10:58:32;;;;;;;1.90;1.77;;;;;;;;;;5007457;28;20030;-44
2022/10/17 11:01:03;;;;;;;2.45;1.52;;;;;;;;;;5006845;28;20049;-47
2022/10/17 11:03:34;;;;;;;2.45;1.45;;;;;;;;;;5007429;28;20487;-48
2022/10/17 11:06:10;;;;;;;2.58;1.95;;;;;;;;;;5007765;28;20414;-47
2022/10/17 11:09:13;;;;;;;5.55;1.75;;;;;;;;;;5005822;28;20116;-47
2022/10/17 11:11:53;;;;;;;6.07;1.73;;;;;;;;;;4949703;28;20047;-43
2022/10/17 11:14:23;;;;;;;3.42;1.70;;;;;;;;;;4946354;28;20480;-46
2022/10/17 11:17:01;;;;;;;1.75;1.40;;;;;;;;;;4943318;28;20054;-49
2022/10/17 11:19:42;;;;;;;5.50;1.55;;;;;;;;;;4947821;28;20514;-50
2022/10/17 11:22:31;;;;;;;6.57;1.65;;;;;;;;;;4946187;28;20147;-45
2022/10/17 11:25:15;;;;;;;4.35;1.70;;;;;;;;;;4947331;28;20650;-47
2022/10/17 11:27:40;;;;;;;3.80;1.50;;;;;;;;;;4948514;28;20043;-45
2022/10/17 11:30:12;;;;;;;3.45;1.80;;;;;;;;;;4947176;28;20069;-48
2022/10/17 11:32:50;;;;;;;2.67;1.65;;;;;;;;;;4948020;28;20028;-45
2022/10/17 11:35:22;;;;;;;2.78;1.90;;;;;;;;;;4945293;28;20044;-46
2022/10/17 11:38:15;;;;;;;4.80;1.52;;;;;;;;;;4945457;28;20058;-47
2022/10/17 11:40:45;;;;;;;4.85;1.83;;;;;;;;;;4949136;28;20389;-50
2022/10/17 11:43:13;;;;;;;4.40;1.52;;;;;;;;;;4946739;28;20039;-44
2022/10/17 11:45:46;;;;;;;3.05;1.67;;;;;;;;;;4947740;28;20154;-46
2022/10/17 11:48:19;;;;;;;2.17;1.55;;;;;;;;;;4981957;28;20502;-44
2022/10/17 11:50:50;;;;;;;3.80;1.60;;;;;;;;;;5007226;28;20402;-44
2022/10/17 11:53:19;;;;;;;2.47;1.75;;;;;;;;;;5006018;28;20387;-44
2022/10/17 11:55:46;;;;;;;3.78;1.67;;;;;;;;;;5006802;28;20130;-44
2022/10/17 11:58:35;;;;;;;2.53;1.60;;;;;;;;;;5008382;28;20064;-45
2022/10/17 12:01:11;;;;;;;3.75;1.70;;;;;;;;;;5007620;28;20169;-48
2022/10/17 12:04:01;;;;;;;3.20;1.60;;;;;;;;;;5009258;28;20045;-43
2022/10/17 12:06:34;;;;;;;1.83;1.60;;;;;;;;;;5006806;28;20133;-47
2022/10/17 12:09:28;;;;;;;5.03;1.60;;;;;;;;;;5004676;28;20061;-46
2022/10/17 12:11:57;;;;;;;3.42;1.80;;;;;;;;;;4946644;28;20051;-45
2022/10/17 12:14:42;;;;;;;7.15;1.83;;;;;;;;;;4942705;28;20035;-45
2022/10/17 12:17:26;;;;;;;4.70;2.20;;;;;;;;;;4942032;28;20055;-44
2022/10/17 12:19:52;;;;;;;4.20;2.08;;;;;;;;;;4944350;28;20105;-47
2022/10/17 12:22:21;;;;;;;5.22;2.10;;;;;;;;;;4944441;28;20431;-47
2022/10/17 12:24:59;;;;;;;2.47;2.00;;;;;;;;;;4946231;28;20138;-45
2022/10/17 12:27:49;;;;;;;4.15;2.00;;;;;;;;;;4924940;28;20535;-44
2022/10/17 12:30:20;;;;;;;5.80;2.17;;;;;;;;;;4946759;28;20931;-44
2022/10/17 12:33:25;;;;;;;4.78;2.08;;;;;;;;;;4947776;28;20039;-46
2022/10/17 12:36:26;;;;;;;12.63;2.13;;;;;;;;;;4941294;28;20043;-45
2022/10/17 12:39:13;;;;;;;2.58;2.25;;;;;;;;;;4946888;28;20408;-46
2022/10/17 12:41:38;;;;;;;11.05;2.85;;;;;;;;;;4947973;28;20051;-45
2022/10/17 12:44:12;;;;;;;7.15;2.38;;;;;;;;;;4949429;28;20031;-44
2022/10/17 12:46:43;;;;;;;14.30;2.97;;;;;;;;;;4950541;28;20191;-43
2022/10/17 12:49:35;;;;;;;16.30;3.00;;;;;;;;;;4988379;28;20399;-46
2022/10/17 12:52:14;;;;;;;8.70;2.58;;;;;;;;;;4999714;28;20046;-46
2022/10/17 12:55:05;;;;;;;4.82;2.50;;;;;;;;;;5009311;28;20057;-48
2022/10/17 12:57:57;;;;;;;7.43;2.63;;;;;;;;;;4998127;28;20053;-45
2022/10/17 13:00:26;;;;;;;;;;;;;;;;;;5008348;28;20092;-46
2022/10/17 13:02:55;;;;;;;8.73;2.75;;;;;;;;;;5010030;28;19917;-44
2022/10/17 13:05:26;;;;;;;11.43;3.13;;;;;;;;;;5009498;28;20092;-47
2022/10/17 13:07:52;;;;;;;8.33;2.77;;;;;;;;;;5011015;28;20018;-45
2022/10/17 13:10:20;;;;;;;5.63;2.60;;;;;;;;;;5009814;28;20489;-45
2022/10/17 13:12:47;;;;;;;6.28;2.60;;;;;;;;;;5009923;28;20052;-45
2022/10/17 13:15:17;;;;;;;11.00;2.38;;;;;;;;;;5006156;28;20063;-46
2022/10/17 13:17:42;;;;;;;5.95;2.97;;;;;;;;;;5011243;28;20041;-44
2022/10/17 13:20:24;;;;;;;9.80;2.80;;;;;;;;;;5007231;28;20073;-45
2022/10/17 13:22:50;;;;;;;6.45;2.60;;;;;;;;;;5009607;28;20390;-44
2022/10/17 13:25:18;;;;;;;7.68;2.92;;;;;;;;;;5009413;28;20045;-44
2022/10/17 13:27:43;;;;;;;10.35;2.60;;;;;;;;;;5009730;28;20037;-44
2022/10/17 13:30:30;;;;;;;8.80;2.90;;;;;;;;;;5008474;28;20042;-44
2022/10/17 13:32:56;;;;;;;7.35;3.35;;;;;;;;;;5007068;28;20125;-43
2022/10/17 13:35:27;;;;;;;6.95;2.67;;;;;;;;;;5007952;28;20630;-43
2022/10/17 13:37:54;;;;;;;4.22;2.97;;;;;;;;;;5007330;28;20030;-43
2022/10/17 13:40:28;;;;;;;6.97;2.95;;;;;;;;;;5008709;28;20046;-43
2022/10/17 13:42:55;;;;;;;5.30;2.72;;;;;;;;;;5009501;28;20030;-43
2022/10/17 13:45:29;;;;;;;7.15;2.50;;;;;;;;;;5009889;28;20038;-43
2022/10/17 13:47:56;;;;;;;5.30;2.83;;;;;;;;;;5009183;28;20056;-43
2022/10/17 13:50:31;;;;;;;9.80;2.70;;;;;;;;;;5004241;28;20562;-43
2022/10/17 13:53:18;;;;;;;9.68;2.58;;;;;;;;;;5008933;28;20030;-42
2022/10/17 13:56:00;;;;;;;5.30;2.88;;;;;;;;;;5009697;28;20096;-44
2022/10/17 13:58:28;;;;;;;4.45;2.30;;;;;;;;;;5011029;28;20029;-44
2022/10/17 14:00:55;;;;;;;3.75;2.45;;;;;;;;;;5009572;28;20038;-43
2022/10/17 14:03:21;;;;;;;5.90;2.42;;;;;;;;;;5010277;28;20099;-45
2022/10/17 14:06:38;;;;;;;10.70;2.38;;;;;;;;;;5008618;28;20060;-47
2022/10/17 14:09:06;;;;;;;7.43;2.53;;;;;;;;;;4987115;28;20081;-43
2022/10/17 14:11:40;;;;;;;10.50;2.35;;;;;;;;;;4986677;28;20038;-44
2022/10/17 14:14:16;;;;;;;4.10;2.55;;;;;;;;;;4987397;28;20038;-43
2022/10/17 14:16:42;;;;;;;4.82;2.65;;;;;;;;;;4986453;28;20068;-44
2022/10/17 14:19:29;;;;;;;5.85;2.55;;;;;;;;;;4986432;28;20467;-44
2022/10/17 14:22:13;;;;;;;2.70;2.17;;;;;;;;;;4985992;28;20038;-48
2022/10/17 14:24:41;;;;;;;3.80;2.67;;;;;;;;;;4967615;28;20031;-44
2022/10/17 14:27:30;;;;;;;4.32;2.28;;;;;;;;;;4988052;28;20038;-46
2022/10/17 14:29:59;;;;;;;5.75;2.40;;;;;;;;;;4985480;28;20085;-44
2022/10/17 14:32:27;;;;;;;4.53;2.60;;;;;;;;;;4985111;28;20042;-47
2022/10/17 14:34:54;;;;;;;8.38;2.45;;;;;;;;;;4969415;28;20470;-45
2022/10/17 14:37:23;;;;;;;11.38;2.90;;;;;;;;;;4987465;28;20096;-44
2022/10/17 14:39:50;;;;;;;8.13;3.00;;;;;;;;;;4985506;28;20640;-45
2022/10/17 14:42:19;;;;;;;6.80;2.63;;;;;;;;;;4985717;28;20058;-44
2022/10/17 14:44:51;;;;;;;11.82;2.60;;;;;;;;;;5000099;28;20464;-43
2022/10/17 14:47:19;;;;;;;;;;;;;;;;;;5007793;28;20105;-43
2022/10/17 14:49:48;;;;;;;4.97;2.78;;;;;;;;;;5006638;28;20008;-43
2022/10/17 14:52:14;;;;;;;5.63;3.03;;;;;;;;;;5008531;28;20356;-44
2022/10/17 14:54:43;;;;;;;10.10;2.47;;;;;;;;;;5004679;28;20029;-44
2022/10/17 14:57:14;;;;;;;10.25;3.00;;;;;;;;;;5005792;28;20426;-43
2022/10/17 14:59:39;;;;;;;9.45;2.70;;;;;;;;;;5002485;28;20666;-44
2022/10/17 15:02:04;;;;;;;9.93;2.63;;;;;;;;;;5004759;28;20038;-44
2022/10/17 15:04:30;;;;;;;9.55;2.97;;;;;;;;;;5002415;28;20028;-43
2022/10/17 15:06:55;;;;;;;11.25;3.05;;;;;;;;;;5008413;28;20442;-43